Time;durP1;ratioP1;P1;durP2;ratioP2;P2;SDS_P1;SDS_P2;PMS_P1;PMS_P2;Temp;Humidity;BMP_temperature;BMP_pressure;BME280_temperature;BME280_humidity;BME280_pressure;Samples;Min_cycle;Max_cycle;Signal;HPM_P1;HPM_P2
2023/03/12 00:00:54;;;;;;;;;13.75;12.50;;;;;11.42;71.48;100538.59;5013519;28;45098;-66
2023/03/12 00:03:19;;;;;;;;;13.25;9.75;;;;;11.47;71.33;100552.09;5012189;28;45230;-65
2023/03/12 00:05:45;;;;;;;;;12.50;11.25;;;;;11.44;70.02;100552.91;5013104;28;45302;-65
2023/03/12 00:08:11;;;;;;;;;14.75;10.25;;;;;11.54;70.73;100564.69;5013047;28;45187;-66
2023/03/12 00:10:40;;;;;;;;;16.00;12.25;;;;;11.55;70.96;100578.09;5011832;28;45284;-65
2023/03/12 00:13:07;;;;;;;;;16.00;12.00;;;;;11.58;71.05;100574.56;5008989;28;45127;-65
2023/03/12 00:15:36;;;;;;;;;32.00;25.25;;;;;11.61;71.26;100575.56;4995377;28;45505;-66
2023/03/12 00:18:01;;;;;;;;;20.50;14.00;;;;;11.62;71.23;100576.44;5010373;28;46063;-67
2023/03/12 00:20:27;;;;;;;;;29.50;23.25;;;;;11.61;71.68;100561.25;5011971;28;45084;-64
2023/03/12 00:22:53;;;;;;;;;14.75;11.75;;;;;11.72;71.31;100566.81;5013141;28;45144;-66
2023/03/12 00:25:19;;;;;;;;;12.00;10.50;;;;;11.73;71.91;100561.50;5013312;28;45144;-67
2023/03/12 00:27:48;;;;;;;;;10.50;9.00;;;;;11.75;70.63;100557.06;4997808;28;46004;-66
2023/03/12 00:30:17;;;;;;;;;22.50;18.75;;;;;11.78;70.65;100556.25;4993584;28;45012;-65
2023/03/12 00:32:42;;;;;;;;;30.75;28.00;;;;;11.78;71.24;100554.44;5013196;28;45212;-64
2023/03/12 00:35:07;;;;;;;;;32.75;22.75;;;;;11.81;70.74;100548.25;5013883;28;45350;-64
2023/03/12 00:37:34;;;;;;;;;24.25;18.25;;;;;11.83;70.58;100541.16;5002750;28;45892;-65
2023/03/12 00:40:00;;;;;;;;;11.75;10.50;;;;;11.83;70.89;100545.59;5013108;28;45100;-66
2023/03/12 00:42:26;;;;;;;;;8.00;7.50;;;;;11.80;70.12;100550.03;5011221;28;45209;-66
2023/03/12 00:44:52;;;;;;;;;19.75;12.25;;;;;11.78;70.34;100556.25;4991779;28;45303;-66
2023/03/12 00:47:17;;;;;;;;;14.75;13.00;;;;;11.73;70.75;100565.94;4994835;28;47080;-66
2023/03/12 00:49:42;;;;;;;;;10.00;10.00;;;;;11.64;71.00;100572.03;5011048;28;45189;-65
2023/03/12 00:52:08;;;;;;;;;15.75;9.25;;;;;11.58;71.19;100569.22;4993716;28;45418;-67
2023/03/12 00:54:33;;;;;;;;;16.75;9.75;;;;;11.52;71.56;100570.00;5010919;28;45166;-65
2023/03/12 00:56:59;;;;;;;;;11.75;9.50;;;;;11.47;71.81;100563.69;4994092;28;46528;-66
2023/03/12 00:59:24;;;;;;;;;10.75;9.50;;;;;11.49;71.98;100575.31;4992545;28;45128;-66
2023/03/12 01:01:50;;;;;;;;;11.25;8.00;;;;;11.51;72.65;100581.56;5009896;28;45237;-65
2023/03/12 01:04:16;;;;;;;;;13.00;9.75;;;;;11.45;72.20;100570.78;5011319;28;45656;-65
2023/03/12 01:06:42;;;;;;;;;19.00;16.25;;;;;11.55;72.46;100579.84;5008807;28;46177;-66
2023/03/12 01:09:08;;;;;;;;;15.50;11.25;;;;;11.58;72.43;100587.94;5011895;28;45198;-66
2023/03/12 01:11:35;;;;;;;;;9.50;7.00;;;;;11.57;72.76;100595.09;5009438;28;45225;-65
2023/03/12 01:14:05;;;;;;;;;17.25;11.75;;;;;11.59;72.46;100589.75;5012058;28;45375;-67
2023/03/12 01:16:30;;;;;;;;;10.75;7.75;;;;;11.59;72.82;100584.41;5008574;28;45615;-65
2023/03/12 01:18:57;;;;;;;;;17.00;16.25;;;;;11.61;72.34;100583.59;5009241;28;45184;-66
2023/03/12 01:21:23;;;;;;;;;17.50;8.75;;;;;11.62;72.80;100585.38;4996132;28;45094;-66
2023/03/12 01:23:49;;;;;;;;;13.25;9.75;;;;;11.59;72.69;100579.94;5009147;28;45242;-66
2023/03/12 01:26:14;;;;;;;;;12.50;7.25;;;;;11.61;72.90;100585.34;5011500;28;45391;-67
2023/03/12 01:28:39;;;;;;;;;16.75;10.50;;;;;11.60;72.70;100587.13;4995746;28;45020;-66
2023/03/12 01:31:10;;;;;;;;;18.50;14.25;;;;;11.59;72.92;100585.31;5012061;28;45762;-65
2023/03/12 01:33:35;;;;;;;;;9.00;9.00;;;;;11.55;73.44;100566.47;4993742;28;47337;-67
2023/03/12 01:36:01;;;;;;;;;14.00;9.25;;;;;11.62;72.65;100585.38;5010424;28;46126;-66
2023/03/12 01:38:26;;;;;;;;;7.00;6.00;;;;;11.59;72.92;100584.41;5009066;28;44873;-65
2023/03/12 01:40:52;;;;;;;;;9.25;5.25;;;;;11.57;72.30;100589.72;5015454;28;45212;-65
2023/03/12 01:43:23;;;;;;;;;10.25;8.50;;;;;11.56;72.71;100585.25;5012886;28;45267;-65
2023/03/12 01:45:59;;;;;;;;;13.00;9.50;;;;;11.59;73.16;100587.09;5009682;28;45904;-66
2023/03/12 01:48:26;;;;;;;;;10.00;9.25;;;;;11.64;72.72;100590.75;5009508;28;45297;-65
2023/03/12 01:50:52;;;;;;;;;8.75;7.50;;;;;11.61;72.29;100578.22;4999608;28;45152;-67
2023/03/12 01:53:18;;;;;;;;;12.50;8.00;;;;;11.61;71.76;100572.88;4995902;28;45139;-64
2023/03/12 01:55:43;;;;;;;;;10.25;7.75;;;;;11.64;71.65;100576.47;5010875;28;46505;-65
2023/03/12 01:58:09;;;;;;;;;6.50;5.25;;;;;11.60;72.20;100578.19;5011561;28;45206;-65
2023/03/12 02:00:34;;;;;;;;;8.75;6.00;;;;;11.50;71.92;100571.75;5011847;28;45116;-66
2023/03/12 02:03:05;;;;;;;;;4.00;4.00;;;;;11.47;72.24;100562.78;5011872;28;45011;-66
2023/03/12 02:05:47;;;;;;;;;9.50;6.00;;;;;11.51;71.99;100576.22;5009365;28;45899;-68
2023/03/12 02:08:15;;;;;;;;;5.00;5.00;;;;;11.48;72.22;100577.94;5009305;28;45124;-65
2023/03/12 02:10:40;;;;;;;;;7.75;6.00;;;;;11.40;71.92;100568.00;5013369;28;45094;-66
2023/03/12 02:13:06;;;;;;;;;7.25;7.25;;;;;11.42;72.29;100576.06;5014245;28;45017;-65
2023/03/12 02:15:37;;;;;;;;;8.00;5.00;;;;;11.34;72.22;100575.91;5013611;28;46148;-66
2023/03/12 02:18:04;;;;;;;;;5.50;5.50;;;;;11.27;73.11;100563.28;5014236;28;45096;-65
2023/03/12 02:20:55;;;;;;;;;8.00;3.75;;;;;11.35;73.24;100575.03;5013389;28;45256;-65
2023/03/12 02:24:02;;;;;;;;;8.50;4.00;;;;;11.34;72.26;100583.91;5015412;28;45273;-66
2023/03/12 02:26:29;;;;;;;;;13.00;7.50;;;;;11.35;73.12;100582.13;4980863;28;45550;-65
2023/03/12 02:28:55;;;;;;;;;9.00;5.25;;;;;11.37;72.79;100588.44;5013593;28;45399;-66
2023/03/12 02:31:27;;;;;;;;;7.75;6.25;;;;;11.38;73.30;100590.22;5014722;28;45110;-65
2023/03/12 02:33:54;;;;;;;;;11.50;5.75;;;;;11.44;73.13;100587.69;5014971;28;45214;-64
2023/03/12 02:36:21;;;;;;;;;8.00;6.25;;;;;11.50;73.10;100587.81;5011342;28;45231;-65
2023/03/12 02:38:48;;;;;;;;;8.25;5.25;;;;;11.52;72.42;100590.53;5012786;28;45050;-65
2023/03/12 02:41:21;;;;;;;;;12.25;6.00;;;;;11.51;73.03;100599.41;5014828;28;45169;-65
2023/03/12 02:44:02;;;;;;;;;6.00;5.00;;;;;11.51;72.67;100592.28;5012737;28;44990;-66
2023/03/12 02:46:33;;;;;;;;;7.25;5.00;;;;;11.51;72.45;100607.44;5013107;28;46179;-64
2023/03/12 02:49:00;;;;;;;;;8.25;5.75;;;;;11.48;72.33;100599.34;4997398;28;45477;-65
2023/03/12 02:51:25;;;;;;;;;13.50;7.25;;;;;11.41;73.20;100587.63;5013664;28;45098;-65
2023/03/12 02:53:53;;;;;;;;;7.25;4.25;;;;;11.44;73.14;100593.94;5013634;28;45272;-66
2023/03/12 02:56:21;;;;;;;;;13.00;6.25;;;;;11.44;73.23;100598.38;5011973;28;46684;-67
2023/03/12 02:58:46;;;;;;;;;12.00;7.00;;;;;11.32;72.63;100579.41;5012104;28;44929;-65
2023/03/12 03:01:11;;;;;;;;;10.25;6.75;;;;;11.37;73.55;100597.38;5013664;28;45329;-66
2023/03/12 03:03:37;;;;;;;;;4.25;4.00;;;;;11.42;73.05;100601.03;5013620;28;45121;-66
2023/03/12 03:06:03;;;;;;;;;5.00;4.50;;;;;11.43;73.18;100605.53;5013961;28;45713;-65
2023/03/12 03:08:28;;;;;;;;;9.00;7.75;;;;;11.45;73.29;100610.91;5013433;28;45125;-65
2023/03/12 03:10:54;;;;;;;;;11.25;7.25;;;;;11.45;72.52;100618.94;5013695;28;45082;-66
2023/03/12 03:13:19;;;;;;;;;10.00;6.00;;;;;11.44;73.08;100601.94;5012073;28;45275;-66
2023/03/12 03:15:45;;;;;;;;;9.00;8.00;;;;;11.48;73.06;100600.22;5014136;28;46033;-66
2023/03/12 03:18:10;;;;;;;;;7.67;6.00;;;;;11.46;73.35;100601.09;5012749;28;45228;-65
2023/03/12 03:20:39;;;;;;;;;6.00;4.75;;;;;11.49;72.49;100609.19;5014115;28;45129;-67
2023/03/12 03:23:05;;;;;;;;;17.75;7.75;;;;;11.49;73.53;100606.50;5012355;28;45365;-66
2023/03/12 03:25:32;;;;;;;;;7.75;6.00;;;;;11.35;73.13;100574.13;5013855;28;46181;-65
2023/03/12 03:27:58;;;;;;;;;10.50;4.75;;;;;11.51;73.43;100610.13;4996084;28;45246;-67
2023/03/12 03:30:23;;;;;;;;;6.50;5.75;;;;;11.50;73.61;100625.28;5012565;28;45054;-65
2023/03/12 03:32:49;;;;;;;;;5.75;5.50;;;;;11.49;73.88;100622.56;5013178;28;45022;-66
2023/03/12 03:35:15;;;;;;;;;8.00;4.00;;;;;11.48;73.48;100631.44;5013219;28;45212;-65
2023/03/12 03:37:40;;;;;;;;;7.00;4.33;;;;;11.48;73.34;100634.13;5014029;28;45280;-66
2023/03/12 03:40:10;;;;;;;;;7.25;5.25;;;;;11.44;72.72;100627.81;5014991;28;45261;-66
2023/03/12 03:42:36;;;;;;;;;9.75;5.50;;;;;11.47;72.92;100638.59;4988264;28;45163;-66
2023/03/12 03:45:01;;;;;;;;;5.25;4.25;;;;;11.41;73.11;100625.97;4994109;28;46033;-66
2023/03/12 03:47:30;;;;;;;;;7.00;5.00;;;;;11.48;73.51;100632.34;4991817;28;45334;-67
2023/03/12 03:49:55;;;;;;;;;14.00;4.50;;;;;10.99;72.71;100553.78;4992829;28;45161;-66
2023/03/12 03:52:20;;;;;;;;;5.75;5.25;;;;;11.27;73.10;100591.78;4991881;28;44921;-64
2023/03/12 03:54:46;;;;;;;;;9.50;5.75;;;;;11.33;72.21;100607.97;4992172;28;46653;-65
2023/03/12 03:57:11;;;;;;;;;9.25;5.75;;;;;11.46;72.39;100642.13;4993506;28;45155;-65
2023/03/12 03:59:37;;;;;;;;;8.25;8.25;;;;;11.35;72.80;100623.19;4992966;28;45176;-66
2023/03/12 04:02:02;;;;;;;;;8.00;6.00;;;;;11.37;72.64;100637.47;4990450;28;45329;-64
2023/03/12 04:04:28;;;;;;;;;4.50;4.25;;;;;11.41;72.61;100644.69;4992038;28;45121;-65
2023/03/12 04:06:53;;;;;;;;;8.67;5.67;;;;;11.37;72.14;100655.31;4992412;28;45112;-66
2023/03/12 04:09:19;;;;;;;;;7.50;5.25;;;;;11.36;72.55;100670.44;4993985;28;45210;-66
2023/03/12 04:11:44;;;;;;;;;9.50;6.75;;;;;11.37;72.85;100666.00;4990623;28;45276;-64
2023/03/12 04:14:10;;;;;;;;;10.75;6.25;;;;;11.36;72.72;100686.50;4990651;28;45961;-66
2023/03/12 04:16:35;;;;;;;;;9.33;4.00;;;;;11.30;72.83;100674.75;4989275;28;45040;-69
2023/03/12 04:19:01;;;;;;;;;6.50;5.50;;;;;11.28;72.62;100674.72;4988762;28;45153;-66
2023/03/12 04:21:26;;;;;;;;;10.50;5.00;;;;;11.21;72.54;100664.75;4990962;28;45225;-65
2023/03/12 04:23:55;;;;;;;;;10.00;5.67;;;;;11.24;73.14;100673.75;4990541;28;45415;-65
2023/03/12 04:26:20;;;;;;;;;7.75;3.00;;;;;11.35;72.20;100695.41;4991808;28;45207;-65
2023/03/12 04:28:46;;;;;;;;;8.00;6.33;;;;;11.33;72.52;100688.19;4992143;28;45339;-65
2023/03/12 04:31:11;;;;;;;;;10.33;6.67;;;;;11.30;72.42;100681.03;4991833;28;45202;-65
2023/03/12 04:33:39;;;;;;;;;15.75;4.00;;;;;11.35;72.60;100697.16;4991671;28;45775;-66
2023/03/12 04:36:06;;;;;;;;;6.75;5.75;;;;;11.36;72.23;100707.88;4992107;28;45096;-65
2023/03/12 04:38:34;;;;;;;;;6.33;3.00;;;;;11.34;72.81;100698.03;4988676;28;45507;-66
2023/03/12 04:41:02;;;;;;;;;6.75;4.25;;;;;11.33;72.43;100712.28;4985328;28;45134;-66
2023/03/12 04:43:29;;;;;;;;;5.50;3.75;;;;;11.27;72.26;100702.34;5002274;28;45435;-64
2023/03/12 04:45:55;;;;;;;;;9.67;4.00;;;;;11.29;72.32;100716.66;5011049;28;45051;-66
2023/03/12 04:48:21;;;;;;;;;7.75;5.00;;;;;11.35;71.78;100734.59;5011009;28;45231;-65
2023/03/12 04:50:46;;;;;;;;;5.33;5.00;;;;;11.35;72.50;100727.50;5012120;28;45050;-68
2023/03/12 04:53:12;;;;;;;;;12.25;6.75;;;;;11.37;71.91;100730.22;5010637;28;45399;-66
2023/03/12 04:55:37;;;;;;;;;5.00;2.67;;;;;11.38;72.45;100729.31;5010711;28;44975;-66
2023/03/12 04:58:03;;;;;;;;;9.33;4.67;;;;;11.18;72.60;100702.13;4993307;28;45499;-66
2023/03/12 05:00:28;;;;;;;;;10.50;6.25;;;;;11.33;71.78;100718.50;5011286;28;45247;-67
2023/03/12 05:02:54;;;;;;;;;6.25;5.00;;;;;11.28;71.94;100709.47;5011497;28;45654;-66
2023/03/12 05:05:20;;;;;;;;;6.50;5.00;;;;;11.10;71.53;100675.19;5010025;28;45026;-65
2023/03/12 05:07:45;;;;;;;;;8.00;4.50;;;;;11.44;71.81;100734.81;5012575;28;45149;-64
2023/03/12 05:10:10;;;;;;;;;12.67;4.33;;;;;11.43;72.27;100739.28;5011673;28;45303;-66
2023/03/12 05:12:36;;;;;;;;;12.50;6.25;;;;;11.44;72.01;100735.72;5009601;28;46023;-65
2023/03/12 05:15:02;;;;;;;;;9.50;3.25;;;;;11.44;71.60;100737.50;5023367;22;46686;-62
2023/03/12 05:17:28;;;;;;;;;4.00;3.67;;;;;11.50;71.39;100753.69;5035130;28;45343;-62
2023/03/12 05:19:53;;;;;;;;;10.50;5.75;;;;;11.54;72.06;100752.00;5032584;28;45369;-63
2023/03/12 05:22:18;;;;;;;;;4.33;3.33;;;;;11.58;71.41;100765.47;5034670;28;45259;-63
2023/03/12 05:24:44;;;;;;;;;6.75;3.50;;;;;11.59;71.01;100763.69;5042593;28;45014;-61
2023/03/12 05:27:10;;;;;;;;;7.00;3.50;;;;;11.57;71.10;100749.38;5019432;28;45039;-60
2023/03/12 05:29:35;;;;;;;;;9.00;3.00;;;;;11.50;71.44;100736.72;5031443;28;45165;-62
2023/03/12 05:32:02;;;;;;;;;9.33;3.33;;;;;11.57;71.43;100750.28;5033673;28;45630;-61
2023/03/12 05:34:29;;;;;;;;;10.33;3.67;;;;;11.56;70.43;100752.91;5029292;28;45271;-62
2023/03/12 05:36:58;;;;;;;;;10.33;6.00;;;;;11.62;70.36;100761.97;5037745;28;45265;-63
2023/03/12 05:39:24;;;;;;;;;5.25;3.75;;;;;11.65;70.24;100771.88;5029834;28;45128;-61
2023/03/12 05:41:49;;;;;;;;;4.67;3.67;;;;;11.64;70.64;100766.47;5030622;28;45766;-60
2023/03/12 05:44:15;;;;;;;;;8.00;6.00;;;;;11.69;69.05;100780.84;5026591;28;45175;-61
2023/03/12 05:46:43;;;;;;;;;6.00;5.00;;;;;11.71;69.27;100780.00;5025984;28;45074;-63
2023/03/12 05:49:09;;;;;;;;;8.00;4.00;;;;;11.71;69.27;100780.00;5033390;28;44929;-61
2023/03/12 05:51:34;;;;;;;;;9.00;4.00;;;;;11.73;68.75;100783.66;5034027;28;45601;-63
2023/03/12 05:54:00;;;;;;;;;2.75;2.50;;;;;11.70;69.35;100775.53;5040088;28;45193;-62
2023/03/12 05:56:26;;;;;;;;;7.50;5.50;;;;;11.76;69.32;100777.44;5039829;28;45113;-62
2023/03/12 05:58:52;;;;;;;;;7.75;4.75;;;;;11.77;68.13;100781.94;5031463;28;45204;-64
2023/03/12 06:01:23;;;;;;;;;6.00;3.00;;;;;11.72;68.58;100771.13;5027689;28;46370;-61
2023/03/12 06:03:49;;;;;;;;;8.50;3.00;;;;;11.78;67.95;100778.41;5031859;28;45197;-60
2023/03/12 06:06:16;;;;;;;;;9.67;2.67;;;;;11.79;68.01;100796.25;5038782;28;44963;-62
2023/03/12 06:08:42;;;;;;;;;6.75;4.25;;;;;11.80;67.91;100795.38;5030922;28;45348;-62
2023/03/12 06:11:08;;;;;;;;;9.75;5.25;;;;;11.82;68.62;100804.34;5031624;28;45569;-61
2023/03/12 06:13:33;;;;;;;;;6.00;5.00;;;;;11.81;68.72;100802.53;5017753;28;45211;-61
2023/03/12 06:16:16;;;;;;;;;8.50;5.00;;;;;11.76;68.83;100801.53;5033897;28;46441;-61
2023/03/12 06:18:42;;;;;;;;;5.67;3.00;;;;;11.73;69.27;100794.34;5033647;28;45124;-61
2023/03/12 06:21:15;;;;;;;;;6.33;2.00;;;;;11.83;68.75;100807.91;5035310;28;46204;-61
2023/03/12 06:23:41;;;;;;;;;7.25;5.00;;;;;11.85;68.09;100806.22;5036684;28;45279;-63
2023/03/12 06:26:08;;;;;;;;;9.00;4.00;;;;;11.86;68.76;100814.25;5035791;28;45347;-61
2023/03/12 06:28:34;;;;;;;;;4.00;2.33;;;;;11.82;68.64;100798.09;5037912;28;45263;-61
2023/03/12 06:30:59;;;;;;;;;6.00;3.00;;;;;11.77;69.31;100789.97;5034204;28;46399;-63
2023/03/12 06:33:25;;;;;;;;;6.67;4.67;;;;;11.75;69.02;100789.94;5018097;28;45688;-61
2023/03/12 06:35:55;;;;;;;;;5.00;4.00;;;;;11.79;68.67;100801.59;5029561;28;45390;-63
2023/03/12 06:38:20;;;;;;;;;7.33;3.67;;;;;11.77;69.49;100804.25;5033330;28;45530;-63
2023/03/12 06:41:02;;;;;;;;;3.33;2.33;;;;;11.75;68.97;100800.63;5023553;28;46110;-62
2023/03/12 06:43:29;;;;;;;;;6.00;4.00;;;;;11.75;68.80;100791.72;5029974;28;45218;-61
2023/03/12 06:45:57;;;;;;;;;8.00;4.67;;;;;11.77;68.69;100796.22;5023570;28;45311;-62
2023/03/12 06:48:24;;;;;;;;;6.67;5.67;;;;;11.78;69.69;100807.84;5031839;28;45221;-62
2023/03/12 06:50:50;;;;;;;;;11.33;6.00;;;;;11.82;69.04;100822.19;5029110;28;45503;-62
2023/03/12 06:53:16;;;;;;;;;8.75;5.00;;;;;11.80;69.42;100830.19;5037776;28;45140;-62
2023/03/12 06:55:42;;;;;;;;;7.00;6.00;;;;;11.80;69.56;100833.75;5042964;28;45168;-62
2023/03/12 06:58:08;;;;;;;;;7.50;4.00;;;;;11.79;69.21;100833.72;5037502;28;45256;-62
2023/03/12 07:00:34;;;;;;;;;6.67;4.33;;;;;11.80;69.07;100838.22;5044826;28;46494;-62
2023/03/12 07:02:59;;;;;;;;;12.50;6.00;;;;;11.86;69.36;100849.03;5042558;28;45034;-63
2023/03/12 07:05:24;;;;;;;;;8.00;6.00;;;;;11.82;69.11;100833.78;5033393;28;45050;-61
2023/03/12 07:07:50;;;;;;;;;13.00;4.00;;;;;11.86;69.36;100846.38;5043495;28;45113;-61
2023/03/12 07:10:16;;;;;;;;;3.67;3.33;;;;;11.90;70.11;100848.25;5031697;28;46165;-62
2023/03/12 07:12:42;;;;;;;;;8.67;4.00;;;;;11.89;69.57;100841.09;5035155;28;44967;-62
2023/03/12 07:15:07;;;;;;;;;8.33;4.00;;;;;11.92;69.33;100838.50;5018927;28;45244;-63
2023/03/12 07:17:33;;;;;;;;;6.67;4.00;;;;;11.92;68.79;100841.19;5037372;28;45143;-60
2023/03/12 07:19:58;;;;;;;;;6.00;4.67;;;;;11.97;69.30;100841.28;5018328;28;47499;-62
2023/03/12 07:22:24;;;;;;;;;10.00;4.75;;;;;12.02;68.81;100849.44;5026496;28;45407;-62
2023/03/12 07:24:50;;;;;;;;;9.67;6.00;;;;;12.02;68.33;100849.44;5017374;28;45328;-62
2023/03/12 07:27:16;;;;;;;;;13.75;4.00;;;;;12.01;68.65;100840.50;5020840;28;45358;-61
2023/03/12 07:29:41;;;;;;;;;6.00;6.00;;;;;12.04;68.48;100836.97;5016021;28;46253;-63
2023/03/12 07:32:06;;;;;;;;;6.33;4.00;;;;;11.95;68.58;100833.22;5032425;28;48392;-61
2023/03/12 07:34:32;;;;;;;;;5.33;5.33;;;;;11.94;69.00;100850.16;5018075;28;45547;-61
2023/03/12 07:36:57;;;;;;;;;12.00;6.50;;;;;11.93;69.25;100853.72;5028544;28;45285;-61
2023/03/12 07:39:22;;;;;;;;;12.50;6.75;;;;;11.93;68.50;100877.81;5015989;28;46473;-62
2023/03/12 07:41:48;;;;;;;;;7.67;3.67;;;;;11.95;68.60;100883.22;5024085;28;45372;-61
2023/03/12 07:44:13;;;;;;;;;25.33;5.00;;;;;11.96;68.25;100876.97;5025085;28;44998;-62
2023/03/12 07:46:38;;;;;;;;;7.00;4.50;;;;;11.95;68.88;100880.53;5027321;28;51106;-61
2023/03/12 07:49:04;;;;;;;;;7.50;5.00;;;;;11.94;68.11;100876.94;5019210;28;46110;-61
2023/03/12 07:51:29;;;;;;;;;11.33;1.00;;;;;12.00;67.96;100888.69;5014447;28;45337;-61
2023/03/12 07:53:55;;;;;;;;;8.67;4.33;;;;;11.98;68.68;100889.53;5009368;28;45312;-62
2023/03/12 07:56:20;;;;;;;;;8.00;4.67;;;;;11.96;67.54;100887.69;5020616;28;45304;-63
2023/03/12 07:58:46;;;;;;;;;3.00;0.00;;;;;11.95;67.42;100878.75;5023637;28;45883;-62
2023/03/12 08:01:11;;;;;;;;;7.00;4.00;;;;;12.03;67.62;100876.25;5030841;28;45536;-62
2023/03/12 08:03:37;;;;;;;;;5.67;3.00;;;;;12.11;67.20;100874.66;5028627;28;45431;-61
2023/03/12 08:06:03;;;;;;;;;9.25;4.75;;;;;12.16;67.54;100869.41;5028790;28;45435;-63
2023/03/12 08:08:30;;;;;;;;;12.00;4.50;;;;;12.26;66.51;100870.47;5024175;28;46955;-61
2023/03/12 08:10:56;;;;;;;;;8.33;3.00;;;;;12.29;66.85;100875.91;5024703;28;45669;-62
2023/03/12 08:13:23;;;;;;;;;6.33;3.00;;;;;12.29;66.22;100874.16;5020240;28;45601;-63
2023/03/12 08:15:50;;;;;;;;;7.33;3.67;;;;;12.30;66.58;100875.03;5022504;28;45287;-63
2023/03/12 08:18:16;;;;;;;;;4.33;4.00;;;;;12.28;67.02;100872.31;5027096;28;46078;-62
2023/03/12 08:20:41;;;;;;;;;9.25;6.75;;;;;12.35;66.71;100871.56;5033767;28;45383;-61
2023/03/12 08:23:06;;;;;;;;;11.33;3.33;;;;;12.40;65.59;100877.03;5031548;28;46549;-63
2023/03/12 08:25:32;;;;;;;;;5.67;5.67;;;;;12.41;65.33;100864.56;5022011;28;45483;-62
2023/03/12 08:27:57;;;;;;;;;6.67;5.67;;;;;12.43;65.43;100869.06;5028263;28;46421;-62
2023/03/12 08:30:22;;;;;;;;;6.33;3.00;;;;;12.53;64.83;100888.91;5036846;28;45178;-62
2023/03/12 08:32:48;;;;;;;;;8.25;6.75;;;;;12.58;66.00;100891.69;4996810;28;45132;-61
2023/03/12 08:35:13;;;;;;;;;10.33;6.00;;;;;12.65;64.67;100883.78;5032086;28;46371;-61
2023/03/12 08:37:40;;;;;;;;;7.50;3.50;;;;;12.75;64.82;100875.94;5027310;28;45778;-61
2023/03/12 08:40:11;;;;;;;;;9.00;5.00;;;;;12.74;64.71;100867.00;5020794;28;45464;-63
2023/03/12 08:42:40;;;;;;;;;4.67;3.67;;;;;12.89;63.75;100890.53;5023435;28;45388;-62
2023/03/12 08:45:08;;;;;;;;;10.67;5.33;;;;;12.91;64.03;100904.88;5015309;28;45437;-61
2023/03/12 08:47:33;;;;;;;;;5.33;2.67;;;;;12.91;63.97;100905.75;5025017;28;47014;-60
2023/03/12 08:49:59;;;;;;;;;6.67;4.00;;;;;12.99;63.27;100918.44;5018423;28;45518;-63
2023/03/12 08:52:24;;;;;;;;;7.33;4.67;;;;;13.05;63.31;100923.88;5015999;28;45370;-62
2023/03/12 08:54:49;;;;;;;;;10.67;4.33;;;;;13.00;62.64;100909.50;5026234;28;45416;-63
2023/03/12 08:57:15;;;;;;;;;6.67;4.00;;;;;13.04;62.36;100914.94;5025794;28;45667;-62
2023/03/12 08:59:41;;;;;;;;;6.33;5.00;;;;;12.96;62.89;100904.97;5003215;28;45547;-63
2023/03/12 09:02:06;;;;;;;;;7.67;4.67;;;;;13.07;62.90;100925.75;5013699;28;45385;-63
2023/03/12 09:04:31;;;;;;;;;3.00;3.00;;;;;13.05;63.13;100922.13;5014727;28;45420;-63
2023/03/12 09:06:57;;;;;;;;;9.33;3.67;;;;;13.05;63.05;100916.78;5012995;28;46813;-64
2023/03/12 09:09:22;;;;;;;;;6.33;5.00;;;;;13.07;62.77;100915.00;5031595;28;45316;-62
2023/03/12 09:11:47;;;;;;;;;7.33;3.33;;;;;13.13;61.56;100908.84;5030710;28;45188;-64
2023/03/12 09:14:13;;;;;;;;;3.00;3.00;;;;;13.21;61.42;100920.63;5037717;28;45222;-64
2023/03/12 09:16:38;;;;;;;;;5.33;4.00;;;;;13.26;60.95;100920.72;5023614;28;46158;-61
2023/03/12 09:19:04;;;;;;;;;4.67;3.67;;;;;13.31;61.33;100928.84;5021814;28;45592;-63
2023/03/12 09:21:29;;;;;;;;;6.00;4.00;;;;;13.30;59.91;100924.34;5018688;28;45432;-63
2023/03/12 09:23:55;;;;;;;;;6.00;3.33;;;;;13.23;60.38;100909.91;5024993;28;45574;-62
2023/03/12 09:26:20;;;;;;;;;7.33;3.00;;;;;13.30;59.79;100925.28;5015920;28;46163;-64
2023/03/12 09:28:46;;;;;;;;;5.00;2.00;;;;;13.35;60.00;100917.34;5026314;28;45446;-66
2023/03/12 09:31:12;;;;;;;;;8.67;3.00;;;;;13.35;59.76;100926.28;5031143;28;45142;-63
2023/03/12 09:33:37;;;;;;;;;6.00;3.00;;;;;13.32;60.64;100909.19;5024709;28;45502;-61
2023/03/12 09:36:03;;;;;;;;;6.00;2.00;;;;;13.48;59.94;100922.03;5029474;28;46492;-62
2023/03/12 09:38:30;;;;;;;;;6.00;4.00;;;;;13.40;59.21;100912.97;5022173;28;45529;-65
2023/03/12 09:40:57;;;;;;;;;10.00;3.00;;;;;13.55;58.61;100933.78;5020320;28;45450;-63
2023/03/12 09:43:29;;;;;;;;;7.00;2.67;;;;;13.57;58.22;100926.66;5026791;28;45366;-63
2023/03/12 09:45:55;;;;;;;;;7.33;4.33;;;;;13.59;58.43;100920.41;5014043;28;45913;-63
2023/03/12 09:48:27;;;;;;;;;6.33;3.33;;;;;13.71;58.33;100930.50;5006283;28;45603;-62
2023/03/12 09:50:52;;;;;;;;;6.67;5.67;;;;;13.83;57.68;100919.03;5018677;28;45947;-63
2023/03/12 09:53:26;;;;;;;;;9.33;3.00;;;;;14.09;57.26;100931.94;5021577;28;45443;-63
2023/03/12 09:55:54;;;;;;;;;3.00;3.00;;;;;14.18;56.68;100927.59;5019879;28;45761;-63
2023/03/12 09:58:35;;;;;;;;;3.00;2.00;;;;;14.23;56.04;100924.09;5035038;28;45839;-62
2023/03/12 10:01:32;;;;;;;;;8.00;4.33;;;;;14.23;55.60;100932.16;5008947;28;45418;-62
2023/03/12 10:04:28;;;;;;;;;5.00;2.00;;;;;14.14;55.26;100924.88;5010705;28;45623;-62
2023/03/12 10:07:04;;;;;;;;;7.33;5.67;;;;;14.12;55.67;100932.91;5016974;28;46939;-62
2023/03/12 10:09:35;;;;;;;;;6.33;2.67;;;;;14.10;55.41;100929.28;5030013;28;45253;-62
2023/03/12 10:12:18;;;;;;;;;8.00;4.33;;;;;14.05;54.16;100930.09;5033050;28;45200;-63
2023/03/12 10:15:02;;;;;;;;;7.00;3.00;;;;;13.97;54.13;100927.28;5021459;28;45484;-63
2023/03/12 10:17:52;;;;;;;;;8.67;1.67;;;;;13.92;54.68;100937.06;5015660;28;48469;-63
2023/03/12 10:20:33;;;;;;;;;6.33;5.00;;;;;13.91;54.19;100930.81;5010598;28;45558;-62
2023/03/12 10:23:19;;;;;;;;;5.67;4.00;;;;;13.93;54.47;100928.13;5015015;28;45656;-62
2023/03/12 10:25:56;;;;;;;;;6.33;4.67;;;;;13.96;53.99;100937.16;5016697;28;45564;-61
2023/03/12 10:28:30;;;;;;;;;4.00;3.00;;;;;13.97;54.33;100938.03;5020429;28;46605;-61
2023/03/12 10:31:04;;;;;;;;;4.33;3.00;;;;;13.99;54.91;100938.97;5032568;28;45244;-62
2023/03/12 10:33:51;;;;;;;;;5.00;2.00;;;;;13.94;54.81;100930.84;5028935;28;45070;-62
2023/03/12 10:36:27;;;;;;;;;7.00;2.67;;;;;14.04;54.19;100937.28;5032426;28;45145;-63
2023/03/12 10:38:52;;;;;;;;;6.00;3.00;;;;;14.06;54.02;100926.56;5032045;28;45111;-62
2023/03/12 10:41:27;;;;;;;;;6.00;1.00;;;;;14.09;54.50;100940.00;5033266;28;44955;-62
2023/03/12 10:43:56;;;;;;;;;3.00;3.00;;;;;14.04;54.15;100925.59;5040267;28;45288;-64
2023/03/12 10:46:36;;;;;;;;;6.00;4.00;;;;;14.08;54.22;100931.03;5028176;28;45208;-63
2023/03/12 10:49:37;;;;;;;;;9.33;3.00;;;;;14.12;54.67;100935.59;5033506;28;45659;-63
2023/03/12 10:52:15;;;;;;;;;9.33;5.33;;;;;14.16;54.83;100933.84;4936188;28;45246;-61
2023/03/12 10:54:43;;;;;;;;;5.33;1.67;;;;;14.24;53.48;100926.81;5024237;28;45046;-64
2023/03/12 10:57:10;;;;;;;;;7.00;4.00;;;;;14.29;53.15;100929.56;5033956;28;44964;-62
2023/03/12 10:59:44;;;;;;;;;1.67;1.33;;;;;14.18;53.63;100918.66;5034110;28;45466;-63
2023/03/12 11:02:31;;;;;;;;;4.00;2.67;;;;;14.25;54.08;100933.06;5025411;28;45750;-62
2023/03/12 11:04:57;;;;;;;;;5.00;3.67;;;;;14.22;52.79;100924.97;5043402;28;45191;-63
2023/03/12 11:07:43;;;;;;;;;8.00;4.00;;;;;14.23;53.51;100930.38;5031488;28;45280;-63
2023/03/12 11:10:08;;;;;;;;;16.00;6.67;;;;;14.34;54.19;100928.75;5030475;28;45828;-62
2023/03/12 11:12:36;;;;;;;;;5.33;2.67;;;;;14.49;53.63;100922.66;5029848;28;45012;-63
2023/03/12 11:15:19;;;;;;;;;13.00;3.00;;;;;14.63;52.26;100927.34;5030630;28;44900;-63
2023/03/12 11:17:45;;;;;;;;;4.33;3.00;;;;;14.70;52.07;100924.75;5035422;28;45559;-63
2023/03/12 11:20:28;;;;;;;;;4.00;2.00;;;;;14.66;51.96;100932.78;5031075;28;45423;-63
2023/03/12 11:22:54;;;;;;;;;8.33;4.00;;;;;14.63;51.81;100917.47;5026531;28;45183;-63
2023/03/12 11:25:27;;;;;;;;;4.00;2.00;;;;;14.69;52.56;100930.13;5030338;28;45093;-61